sensor_id;sensor_type;location;lat;lon;timestamp;pressure;altitude;pressure_sealevel;temperature;humidity
29371;BME280;16357;52.188;7.838;2023-03-18T00:02:09;100095.44;;;15.35;45.52
29371;BME280;16357;52.188;7.838;2023-03-18T00:04:36;100094.00;;;15.33;45.59
29371;BME280;16357;52.188;7.838;2023-03-18T00:07:02;100094.41;;;15.30;45.80
29371;BME280;16357;52.188;7.838;2023-03-18T00:09:29;100101.03;;;15.27;46.21
29371;BME280;16357;52.188;7.838;2023-03-18T00:11:55;100097.91;;;15.24;45.95
29371;BME280;16357;52.188;7.838;2023-03-18T00:14:22;100094.78;;;15.20;46.35
29371;BME280;16357;52.188;7.838;2023-03-18T00:16:48;100099.53;;;15.18;46.24
29371;BME280;16357;52.188;7.838;2023-03-18T00:19:16;100092.66;;;15.15;46.70
29371;BME280;16357;52.188;7.838;2023-03-18T00:21:43;100102.00;;;15.13;46.54
29371;BME280;16357;52.188;7.838;2023-03-18T00:24:10;100103.25;;;15.10;46.91
29371;BME280;16357;52.188;7.838;2023-03-18T00:26:37;100102.84;;;15.07;47.06
29371;BME280;16357;52.188;7.838;2023-03-18T00:29:04;100101.16;;;15.06;47.29
29371;BME280;16357;52.188;7.838;2023-03-18T00:31:30;100101.56;;;15.03;47.56
29371;BME280;16357;52.188;7.838;2023-03-18T00:33:57;100105.50;;;15.00;47.44
29371;BME280;16357;52.188;7.838;2023-03-18T00:36:24;100104.03;;;14.98;47.96
29371;BME280;16357;52.188;7.838;2023-03-18T00:38:54;100107.78;;;14.97;47.97
29371;BME280;16357;52.188;7.838;2023-03-18T00:41:25;100107.13;;;14.95;48.28
29371;BME280;16357;52.188;7.838;2023-03-18T00:43:52;100110.03;;;14.93;48.15
29371;BME280;16357;52.188;7.838;2023-03-18T00:46:22;100099.63;;;14.90;48.52
29371;BME280;16357;52.188;7.838;2023-03-18T00:48:51;100114.34;;;14.87;48.54
29371;BME280;16357;52.188;7.838;2023-03-18T00:51:19;100106.66;;;14.84;48.61
29371;BME280;16357;52.188;7.838;2023-03-18T00:53:49;100108.72;;;14.82;48.68
29371;BME280;16357;52.188;7.838;2023-03-18T00:56:19;100100.19;;;14.79;49.41
29371;BME280;16357;52.188;7.838;2023-03-18T00:58:48;100101.25;;;14.78;49.37
29371;BME280;16357;52.188;7.838;2023-03-18T01:01:16;100096.03;;;14.76;49.52
29371;BME280;16357;52.188;7.838;2023-03-18T01:03:43;100095.38;;;14.74;49.92
29371;BME280;16357;52.188;7.838;2023-03-18T01:06:11;100102.03;;;14.71;49.66
29371;BME280;16357;52.188;7.838;2023-03-18T01:08:40;100098.72;;;14.69;50.10
29371;BME280;16357;52.188;7.838;2023-03-18T01:11:07;100099.06;;;14.66;49.80
29371;BME280;16357;52.188;7.838;2023-03-18T01:13:34;100094.91;;;14.64;50.24
29371;BME280;16357;52.188;7.838;2023-03-18T01:16:01;100090.78;;;14.61;50.33
29371;BME280;16357;52.188;7.838;2023-03-18T01:18:28;100091.16;;;14.58;50.37
29371;BME280;16357;52.188;7.838;2023-03-18T01:20:56;100091.53;;;14.55;50.67
29371;BME280;16357;52.188;7.838;2023-03-18T01:23:23;100079.28;;;14.53;50.71
29371;BME280;16357;52.188;7.838;2023-03-18T01:25:50;100077.78;;;14.50;50.99
29371;BME280;16357;52.188;7.838;2023-03-18T01:28:16;100077.13;;;14.48;51.01
29371;BME280;16357;52.188;7.838;2023-03-18T01:30:43;100074.00;;;14.44;51.13
29371;BME280;16357;52.188;7.838;2023-03-18T01:33:09;100083.16;;;14.43;51.50
29371;BME280;16357;52.188;7.838;2023-03-18T01:35:36;100090.78;;;14.40;51.92
29371;BME280;16357;52.188;7.838;2023-03-18T01:38:03;100097.41;;;14.37;51.60
29371;BME280;16357;52.188;7.838;2023-03-18T01:40:32;100091.41;;;14.35;51.67
29371;BME280;16357;52.188;7.838;2023-03-18T01:49:05;100102.13;;;14.28;52.00
29371;BME280;16357;52.188;7.838;2023-03-18T01:51:32;100105.03;;;14.27;52.10
29371;BME280;16357;52.188;7.838;2023-03-18T01:54:02;100100.66;;;14.26;52.22
29371;BME280;16357;52.188;7.838;2023-03-18T01:56:31;100090.09;;;14.24;52.41
29371;BME280;16357;52.188;7.838;2023-03-18T01:58:59;100093.78;;;14.23;52.61
29371;BME280;16357;52.188;7.838;2023-03-18T02:01:31;100100.03;;;14.24;52.33
29371;BME280;16357;52.188;7.838;2023-03-18T02:04:01;100104.59;;;14.23;52.78
29371;BME280;16357;52.188;7.838;2023-03-18T02:06:30;100099.41;;;14.22;52.88
29371;BME280;16357;52.188;7.838;2023-03-18T02:08:57;100102.09;;;14.22;53.04
29371;BME280;16357;52.188;7.838;2023-03-18T02:11:23;100099.19;;;14.23;53.00
29371;BME280;16357;52.188;7.838;2023-03-18T02:13:49;100098.34;;;14.23;53.26
29371;BME280;16357;52.188;7.838;2023-03-18T02:16:25;100107.09;;;14.25;53.13
29371;BME280;16357;52.188;7.838;2023-03-18T02:18:55;100104.19;;;14.26;53.05
29371;BME280;16357;52.188;7.838;2023-03-18T02:21:43;100103.19;;;14.27;52.91
29371;BME280;16357;52.188;7.838;2023-03-18T02:24:33;100104.84;;;14.28;52.97
29371;BME280;16357;52.188;7.838;2023-03-18T02:27:24;100100.09;;;14.31;53.01
29371;BME280;16357;52.188;7.838;2023-03-18T02:29:55;100102.78;;;14.31;52.98
29371;BME280;16357;52.188;7.838;2023-03-18T02:32:26;100105.47;;;14.31;53.03
29371;BME280;16357;52.188;7.838;2023-03-18T02:34:54;100107.34;;;14.30;53.47
29371;BME280;16357;52.188;7.838;2023-03-18T02:37:21;100116.28;;;14.31;53.41
29371;BME280;16357;52.188;7.838;2023-03-18T02:39:48;100115.44;;;14.30;53.47
29371;BME280;16357;52.188;7.838;2023-03-18T02:42:14;100111.69;;;14.31;53.55
29371;BME280;16357;52.188;7.838;2023-03-18T02:44:44;100118.56;;;14.34;53.50
29371;BME280;16357;52.188;7.838;2023-03-18T02:47:17;100118.38;;;14.35;53.37
29371;BME280;16357;52.188;7.838;2023-03-18T02:49:46;100122.94;;;14.35;53.67
29371;BME280;16357;52.188;7.838;2023-03-18T02:52:12;100119.22;;;14.36;53.51
29371;BME280;16357;52.188;7.838;2023-03-18T02:54:38;100125.44;;;14.36;53.75
29371;BME280;16357;52.188;7.838;2023-03-18T02:57:05;100120.88;;;14.37;53.57
29371;BME280;16357;52.188;7.838;2023-03-18T02:59:31;100124.41;;;14.37;53.71
29371;BME280;16357;52.188;7.838;2023-03-18T03:01:58;100124.22;;;14.39;53.64
29371;BME280;16357;52.188;7.838;2023-03-18T03:04:26;100122.34;;;14.39;53.91
29371;BME280;16357;52.188;7.838;2023-03-18T03:06:53;100125.03;;;14.39;53.68
29371;BME280;16357;52.188;7.838;2023-03-18T03:09:22;100124.84;;;14.41;53.82
29371;BME280;16357;52.188;7.838;2023-03-18T03:11:49;100131.91;;;14.42;53.83
29371;BME280;16357;52.188;7.838;2023-03-18T03:14:16;100128.38;;;14.41;53.68
29371;BME280;16357;52.188;7.838;2023-03-18T03:16:43;100128.38;;;14.41;53.60
29371;BME280;16357;52.188;7.838;2023-03-18T03:19:10;100131.09;;;14.41;53.77
29371;BME280;16357;52.188;7.838;2023-03-18T03:21:37;100126.50;;;14.42;53.86
29371;BME280;16357;52.188;7.838;2023-03-18T03:24:04;100127.34;;;14.42;53.91
29371;BME280;16357;52.188;7.838;2023-03-18T03:26:31;100123.63;;;14.43;53.54
29371;BME280;16357;52.188;7.838;2023-03-18T03:28:59;100128.00;;;14.44;53.80
29371;BME280;16357;52.188;7.838;2023-03-18T03:31:26;100122.59;;;14.44;53.70
29371;BME280;16357;52.188;7.838;2023-03-18T03:33:53;100125.28;;;14.44;53.58
29371;BME280;16357;52.188;7.838;2023-03-18T03:36:19;100120.94;;;14.43;53.73
29371;BME280;16357;52.188;7.838;2023-03-18T03:38:46;100118.41;;;14.42;53.74
29371;BME280;16357;52.188;7.838;2023-03-18T03:41:13;100124.66;;;14.42;53.53
29371;BME280;16357;52.188;7.838;2023-03-18T03:43:42;100129.44;;;14.40;53.65
29371;BME280;16357;52.188;7.838;2023-03-18T03:46:09;100132.31;;;14.39;53.87
29371;BME280;16357;52.188;7.838;2023-03-18T03:48:37;100134.38;;;14.37;53.82
29371;BME280;16357;52.188;7.838;2023-03-18T03:51:05;100134.56;;;14.35;53.81
29371;BME280;16357;52.188;7.838;2023-03-18T03:53:32;100134.75;;;14.34;54.07
29371;BME280;16357;52.188;7.838;2023-03-18T03:55:59;100138.69;;;14.31;54.03
29371;BME280;16357;52.188;7.838;2023-03-18T03:58:26;100142.81;;;14.27;54.11
29371;BME280;16357;52.188;7.838;2023-03-18T04:00:52;100143.19;;;14.24;54.25
29371;BME280;16357;52.188;7.838;2023-03-18T04:03:19;100154.19;;;14.22;54.36
29371;BME280;16357;52.188;7.838;2023-03-18T04:05:45;100155.19;;;14.21;54.37
29371;BME280;16357;52.188;7.838;2023-03-18T04:08:11;100150.84;;;14.20;54.58
29371;BME280;16357;52.188;7.838;2023-03-18T04:10:38;100151.03;;;14.19;54.57
29371;BME280;16357;52.188;7.838;2023-03-18T04:13:05;100149.38;;;14.18;54.44
29371;BME280;16357;52.188;7.838;2023-03-18T04:15:31;100155.81;;;14.17;54.57
29371;BME280;16357;52.188;7.838;2023-03-18T04:17:58;100163.03;;;14.16;54.78
29371;BME280;16357;52.188;7.838;2023-03-18T04:20:29;100163.03;;;14.16;54.61
29371;BME280;16357;52.188;7.838;2023-03-18T04:22:57;100167.59;;;14.16;55.01
29371;BME280;16357;52.188;7.838;2023-03-18T04:25:23;100174.69;;;14.17;54.82
29371;BME280;16357;52.188;7.838;2023-03-18T04:27:50;100160.34;;;14.16;54.85
29371;BME280;16357;52.188;7.838;2023-03-18T04:30:18;100158.50;;;14.17;54.92
29371;BME280;16357;52.188;7.838;2023-03-18T04:32:45;100164.91;;;14.16;54.93
29371;BME280;16357;52.188;7.838;2023-03-18T04:35:12;100163.91;;;14.17;54.97
29371;BME280;16357;52.188;7.838;2023-03-18T04:37:38;100178.41;;;14.16;54.82
29371;BME280;16357;52.188;7.838;2023-03-18T04:40:05;100178.41;;;14.16;54.89
29371;BME280;16357;52.188;7.838;2023-03-18T04:42:32;100181.09;;;14.16;54.87
29371;BME280;16357;52.188;7.838;2023-03-18T04:44:58;100181.09;;;14.16;54.96
29371;BME280;16357;52.188;7.838;2023-03-18T04:47:25;100179.44;;;14.15;55.09
29371;BME280;16357;52.188;7.838;2023-03-18T04:49:51;100192.94;;;14.15;55.12
29371;BME280;16357;52.188;7.838;2023-03-18T04:52:17;100191.22;;;14.14;55.25
29371;BME280;16357;52.188;7.838;2023-03-18T04:54:45;100183.34;;;14.12;55.29
29371;BME280;16357;52.188;7.838;2023-03-18T04:57:12;100187.28;;;14.10;55.36
29371;BME280;16357;52.188;7.838;2023-03-18T04:59:38;100187.28;;;14.10;55.32
29371;BME280;16357;52.188;7.838;2023-03-18T05:02:04;100186.63;;;14.08;55.49
29371;BME280;16357;52.188;7.838;2023-03-18T05:04:31;100190.34;;;14.07;55.44
29371;BME280;16357;52.188;7.838;2023-03-18T05:06:57;100194.06;;;14.05;55.38
29371;BME280;16357;52.188;7.838;2023-03-18T05:09:24;100185.34;;;14.03;55.19
29371;BME280;16357;52.188;7.838;2023-03-18T05:11:50;100189.06;;;14.02;55.42
29371;BME280;16357;52.188;7.838;2023-03-18T05:14:16;100193.63;;;14.02;55.39
29371;BME280;16357;52.188;7.838;2023-03-18T05:16:43;100185.53;;;14.02;55.35
29371;BME280;16357;52.188;7.838;2023-03-18T05:19:10;100194.66;;;14.01;55.41
29371;BME280;16357;52.188;7.838;2023-03-18T05:21:37;100200.88;;;14.01;55.38
29371;BME280;16357;52.188;7.838;2023-03-18T05:24:03;100187.41;;;14.01;55.59
29371;BME280;16357;52.188;7.838;2023-03-18T05:26:30;100188.22;;;14.02;55.70
29371;BME280;16357;52.188;7.838;2023-03-18T05:28:56;100188.22;;;14.02;55.72
29371;BME280;16357;52.188;7.838;2023-03-18T05:31:24;100186.38;;;14.02;55.58
29371;BME280;16357;52.188;7.838;2023-03-18T05:33:50;100196.16;;;14.03;55.48
29371;BME280;16357;52.188;7.838;2023-03-18T05:36:17;100194.28;;;14.04;55.68
29371;BME280;16357;52.188;7.838;2023-03-18T05:38:44;100197.81;;;14.04;55.63
29371;BME280;16357;52.188;7.838;2023-03-18T05:41:11;100210.25;;;14.05;55.75
29371;BME280;16357;52.188;7.838;2023-03-18T05:43:38;100207.56;;;14.05;55.66
29371;BME280;16357;52.188;7.838;2023-03-18T05:46:04;100199.47;;;14.05;55.62
29371;BME280;16357;52.188;7.838;2023-03-18T05:48:31;100200.31;;;14.06;55.53
29371;BME280;16357;52.188;7.838;2023-03-18T05:50:58;100205.72;;;14.06;55.51
29371;BME280;16357;52.188;7.838;2023-03-18T05:53:24;100204.84;;;14.05;55.52
29371;BME280;16357;52.188;7.838;2023-03-18T05:55:51;100212.78;;;14.07;55.54
29371;BME280;16357;52.188;7.838;2023-03-18T05:58:17;100215.66;;;14.05;55.62
29371;BME280;16357;52.188;7.838;2023-03-18T06:00:44;100210.25;;;14.05;55.86
29371;BME280;16357;52.188;7.838;2023-03-18T06:03:11;100216.50;;;14.06;55.91
29371;BME280;16357;52.188;7.838;2023-03-18T06:05:37;100221.69;;;14.08;55.76
29371;BME280;16357;52.188;7.838;2023-03-18T06:08:03;100219.00;;;14.08;55.77
29371;BME280;16357;52.188;7.838;2023-03-18T06:10:30;100222.34;;;14.10;55.85
29371;BME280;16357;52.188;7.838;2023-03-18T06:12:57;100228.38;;;14.12;56.02
29371;BME280;16357;52.188;7.838;2023-03-18T06:15:23;100228.38;;;14.12;56.00
29371;BME280;16357;52.188;7.838;2023-03-18T06:17:50;100234.41;;;14.14;55.87
29371;BME280;16357;52.188;7.838;2023-03-18T06:20:18;100233.56;;;14.13;55.85
29371;BME280;16357;52.188;7.838;2023-03-18T06:22:45;100240.44;;;14.16;55.88
29371;BME280;16357;52.188;7.838;2023-03-18T06:25:17;100242.13;;;14.17;56.04
29371;BME280;16357;52.188;7.838;2023-03-18T06:27:44;100246.50;;;14.18;55.75
29371;BME280;16357;52.188;7.838;2023-03-18T06:30:14;100252.72;;;14.18;56.07
29371;BME280;16357;52.188;7.838;2023-03-18T06:32:42;100264.34;;;14.19;56.39
29371;BME280;16357;52.188;7.838;2023-03-18T06:35:09;100265.19;;;14.19;56.25
29371;BME280;16357;52.188;7.838;2023-03-18T06:37:37;100260.63;;;14.20;56.54
29371;BME280;16357;52.188;7.838;2023-03-18T06:40:05;100261.44;;;14.20;56.50
29371;BME280;16357;52.188;7.838;2023-03-18T06:42:32;100262.28;;;14.21;56.42
29371;BME280;16357;52.188;7.838;2023-03-18T06:44:58;100267.69;;;14.21;56.63
29371;BME280;16357;52.188;7.838;2023-03-18T06:47:25;100267.69;;;14.21;57.12
29371;BME280;16357;52.188;7.838;2023-03-18T06:49:51;100276.81;;;14.20;57.05
29371;BME280;16357;52.188;7.838;2023-03-18T06:52:18;100275.13;;;14.19;57.54
29371;BME280;16357;52.188;7.838;2023-03-18T06:54:45;100270.59;;;14.19;57.22
29371;BME280;16357;52.188;7.838;2023-03-18T06:57:12;100273.47;;;14.18;57.53
29371;BME280;16357;52.188;7.838;2023-03-18T06:59:38;100271.81;;;14.17;57.58
29371;BME280;16357;52.188;7.838;2023-03-18T07:02:05;100276.34;;;14.16;57.72
29371;BME280;16357;52.188;7.838;2023-03-18T07:04:33;100275.50;;;14.16;57.88
29371;BME280;16357;52.188;7.838;2023-03-18T07:07:00;100280.06;;;14.15;57.87
29371;BME280;16357;52.188;7.838;2023-03-18T07:09:27;100273.63;;;14.16;58.01
29371;BME280;16357;52.188;7.838;2023-03-18T07:11:53;100274.50;;;14.17;58.08
29371;BME280;16357;52.188;7.838;2023-03-18T07:14:20;100280.06;;;14.15;58.19
29371;BME280;16357;52.188;7.838;2023-03-18T07:16:46;100271.16;;;14.15;58.17
29371;BME280;16357;52.188;7.838;2023-03-18T07:19:13;100277.38;;;14.15;58.51
29371;BME280;16357;52.188;7.838;2023-03-18T07:21:40;100287.13;;;14.16;58.54
29371;BME280;16357;52.188;7.838;2023-03-18T07:24:08;100294.22;;;14.17;58.63
29371;BME280;16357;52.188;7.838;2023-03-18T07:26:35;100309.19;;;14.20;58.45
29371;BME280;16357;52.188;7.838;2023-03-18T07:29:03;100302.75;;;14.21;58.79
29371;BME280;16357;52.188;7.838;2023-03-18T07:31:30;100296.97;;;14.24;58.81
29371;BME280;16357;52.188;7.838;2023-03-18T07:33:56;100304.06;;;14.25;58.70
29371;BME280;16357;52.188;7.838;2023-03-18T07:36:23;100310.94;;;14.27;59.03
29371;BME280;16357;52.188;7.838;2023-03-18T07:38:50;100314.06;;;14.31;59.04
29371;BME280;16357;52.188;7.838;2023-03-18T07:41:17;100316.22;;;14.36;58.99
29371;BME280;16357;52.188;7.838;2023-03-18T07:43:43;100321.88;;;14.41;59.35
29371;BME280;16357;52.188;7.838;2023-03-18T07:46:10;100326.47;;;14.47;59.38
29371;BME280;16357;52.188;7.838;2023-03-18T07:48:36;100323.91;;;14.54;59.71
29371;BME280;16357;52.188;7.838;2023-03-18T07:51:03;100316.69;;;14.61;59.70
29371;BME280;16357;52.188;7.838;2023-03-18T07:53:30;100318.41;;;14.68;59.55
29371;BME280;16357;52.188;7.838;2023-03-18T07:55:56;100320.97;;;14.77;59.79
29371;BME280;16357;52.188;7.838;2023-03-18T07:58:23;100316.28;;;14.85;59.15
29371;BME280;16357;52.188;7.838;2023-03-18T08:00:51;100319.69;;;14.94;59.17
29371;BME280;16357;52.188;7.838;2023-03-18T08:03:18;100329.50;;;15.02;59.28
29371;BME280;16357;52.188;7.838;2023-03-18T08:05:44;100321.25;;;15.10;58.65
29371;BME280;16357;52.188;7.838;2023-03-18T08:08:10;100326.50;;;15.18;58.76
29371;BME280;16357;52.188;7.838;2023-03-18T08:10:37;100331.13;;;15.24;58.44
29371;BME280;16357;52.188;7.838;2023-03-18T08:13:03;100329.31;;;15.31;58.70
29371;BME280;16357;52.188;7.838;2023-03-18T08:15:30;100324.78;;;15.39;58.70
29371;BME280;16357;52.188;7.838;2023-03-18T08:17:57;100324.44;;;15.48;58.67
29371;BME280;16357;52.188;7.838;2023-03-18T08:20:23;100329.47;;;15.58;59.19
29371;BME280;16357;52.188;7.838;2023-03-18T08:22:50;100325.22;;;15.70;58.61
29371;BME280;16357;52.188;7.838;2023-03-18T08:25:16;100333.38;;;15.84;58.88
29371;BME280;16357;52.188;7.838;2023-03-18T08:27:43;100335.50;;;15.95;57.97
29371;BME280;16357;52.188;7.838;2023-03-18T08:30:10;100339.72;;;16.04;58.38
29371;BME280;16357;52.188;7.838;2023-03-18T08:32:36;100341.44;;;16.12;57.56
29371;BME280;16357;52.188;7.838;2023-03-18T08:35:04;100340.59;;;16.18;57.48
29371;BME280;16357;52.188;7.838;2023-03-18T08:37:30;100347.47;;;16.20;57.42
29371;BME280;16357;52.188;7.838;2023-03-18T08:39:57;100343.72;;;16.21;57.20
29371;BME280;16357;52.188;7.838;2023-03-18T08:42:23;100341.88;;;16.22;57.74
29371;BME280;16357;52.188;7.838;2023-03-18T08:44:50;100344.19;;;16.25;57.94
29371;BME280;16357;52.188;7.838;2023-03-18T08:47:16;100351.88;;;16.28;57.43
29371;BME280;16357;52.188;7.838;2023-03-18T08:49:43;100349.59;;;16.32;58.29
29371;BME280;16357;52.188;7.838;2023-03-18T08:52:09;100360.66;;;16.37;57.85
29371;BME280;16357;52.188;7.838;2023-03-18T08:54:37;100354.22;;;16.44;57.89
29371;BME280;16357;52.188;7.838;2023-03-18T08:57:03;100351.53;;;16.51;58.18
29371;BME280;16357;52.188;7.838;2023-03-18T08:59:30;100353.22;;;16.59;58.54
29371;BME280;16357;52.188;7.838;2023-03-18T09:01:56;100355.72;;;16.67;57.89
29371;BME280;16357;52.188;7.838;2023-03-18T09:04:22;100354.09;;;16.79;58.26
29371;BME280;16357;52.188;7.838;2023-03-18T09:06:51;100358.69;;;16.92;58.35
29371;BME280;16357;52.188;7.838;2023-03-18T09:09:17;100356.81;;;17.06;57.52
29371;BME280;16357;52.188;7.838;2023-03-18T09:11:44;100361.22;;;17.20;57.03
29371;BME280;16357;52.188;7.838;2023-03-18T09:14:11;100362.84;;;17.34;56.41
29371;BME280;16357;52.188;7.838;2023-03-18T09:16:39;100363.69;;;17.48;56.31
29371;BME280;16357;52.188;7.838;2023-03-18T09:19:06;100368.47;;;17.60;55.63
29371;BME280;16357;52.188;7.838;2023-03-18T09:21:32;100362.81;;;17.68;55.39
29371;BME280;16357;52.188;7.838;2023-03-18T09:23:58;100368.19;;;17.74;55.19
29371;BME280;16357;52.188;7.838;2023-03-18T09:26:25;100367.41;;;17.81;55.30
29371;BME280;16357;52.188;7.838;2023-03-18T09:28:51;100375.94;;;17.84;54.29
29371;BME280;16357;52.188;7.838;2023-03-18T09:31:18;100374.06;;;17.85;53.93
29371;BME280;16357;52.188;7.838;2023-03-18T09:33:45;100375.94;;;17.84;53.67
29371;BME280;16357;52.188;7.838;2023-03-18T09:36:12;100376.19;;;17.83;53.55
29371;BME280;16357;52.188;7.838;2023-03-18T09:38:39;100382.84;;;17.80;53.90
29371;BME280;16357;52.188;7.838;2023-03-18T09:41:27;100388.28;;;17.80;53.83
29371;BME280;16357;52.188;7.838;2023-03-18T09:44:10;100387.00;;;17.76;53.62
29371;BME280;16357;52.188;7.838;2023-03-18T09:52:35;100389.91;;;17.74;53.86
29371;BME280;16357;52.188;7.838;2023-03-18T09:55:28;100395.13;;;17.76;53.76
29371;BME280;16357;52.188;7.838;2023-03-18T09:58:02;100398.47;;;17.78;53.68
29371;BME280;16357;52.188;7.838;2023-03-18T10:00:36;100404.13;;;17.83;53.67
29371;BME280;16357;52.188;7.838;2023-03-18T10:03:05;100407.25;;;17.87;53.68
29371;BME280;16357;52.188;7.838;2023-03-18T10:14:22;100409.50;;;18.10;53.22
29371;BME280;16357;52.188;7.838;2023-03-18T10:16:57;100413.66;;;18.12;52.63
29371;BME280;16357;52.188;7.838;2023-03-18T10:19:28;100416.13;;;18.14;52.60
29371;BME280;16357;52.188;7.838;2023-03-18T10:24:56;100420.75;;;18.13;52.58
29371;BME280;16357;52.188;7.838;2023-03-18T10:30:18;100418.25;;;18.12;52.39
29371;BME280;16357;52.188;7.838;2023-03-18T10:38:28;100423.06;;;18.10;52.73
29371;BME280;16357;52.188;7.838;2023-03-18T10:40:57;100415.53;;;18.12;52.74
29371;BME280;16357;52.188;7.838;2023-03-18T10:43:26;100415.31;;;18.20;52.86
29371;BME280;16357;52.188;7.838;2023-03-18T10:46:03;100417.53;;;18.30;53.01
29371;BME280;16357;52.188;7.838;2023-03-18T10:48:32;100418.53;;;18.42;53.38
29371;BME280;16357;52.188;7.838;2023-03-18T10:53:41;100421.53;;;18.72;52.02
29371;BME280;16357;52.188;7.838;2023-03-18T10:56:13;100417.09;;;18.84;51.80
29371;BME280;16357;52.188;7.838;2023-03-18T10:58:41;100412.38;;;18.98;51.15
29371;BME280;16357;52.188;7.838;2023-03-18T11:01:10;100417.75;;;19.12;50.74
29371;BME280;16357;52.188;7.838;2023-03-18T11:03:50;100414.94;;;19.25;50.84
29371;BME280;16357;52.188;7.838;2023-03-18T11:06:29;100411.25;;;19.38;50.46
29371;BME280;16357;52.188;7.838;2023-03-18T11:09:05;100413.25;;;19.49;49.83
29371;BME280;16357;52.188;7.838;2023-03-18T11:11:34;100413.59;;;19.59;49.59
29371;BME280;16357;52.188;7.838;2023-03-18T11:14:03;100414.16;;;19.68;48.81
29371;BME280;16357;52.188;7.838;2023-03-18T11:19:05;100405.19;;;19.86;48.84
29371;BME280;16357;52.188;7.838;2023-03-18T11:21:34;100416.81;;;19.93;48.20
29371;BME280;16357;52.188;7.838;2023-03-18T11:24:02;100410.47;;;19.99;47.29
29371;BME280;16357;52.188;7.838;2023-03-18T11:26:54;100415.84;;;20.06;47.37
29371;BME280;16357;52.188;7.838;2023-03-18T11:29:28;100414.81;;;20.07;47.20
29371;BME280;16357;52.188;7.838;2023-03-18T11:31:56;100416.66;;;20.06;46.92
29371;BME280;16357;52.188;7.838;2023-03-18T11:34:29;100416.09;;;20.04;46.61
29371;BME280;16357;52.188;7.838;2023-03-18T11:37:01;100415.69;;;20.01;46.52
29371;BME280;16357;52.188;7.838;2023-03-18T11:39:33;100424.56;;;19.96;46.45
29371;BME280;16357;52.188;7.838;2023-03-18T11:42:14;100414.09;;;19.93;46.44
29371;BME280;16357;52.188;7.838;2023-03-18T11:44:41;100420.00;;;19.90;46.26
29371;BME280;16357;52.188;7.838;2023-03-18T11:47:21;100400.94;;;19.90;46.46
29371;BME280;16357;52.188;7.838;2023-03-18T11:49:49;100398.22;;;19.90;46.53
29371;BME280;16357;52.188;7.838;2023-03-18T11:52:34;100403.81;;;19.95;46.96
29371;BME280;16357;52.188;7.838;2023-03-18T11:58:30;100388.69;;;20.17;47.15
29371;BME280;16357;52.188;7.838;2023-03-18T12:07:24;100392.41;;;20.53;45.63
29371;BME280;16357;52.188;7.838;2023-03-18T12:10:17;100388.81;;;20.59;45.00
29371;BME280;16357;52.188;7.838;2023-03-18T12:13:07;100383.50;;;20.65;44.78
29371;BME280;16357;52.188;7.838;2023-03-18T12:15:47;100382.78;;;20.69;44.35
29371;BME280;16357;52.188;7.838;2023-03-18T12:24:03;100375.59;;;20.75;44.30
29371;BME280;16357;52.188;7.838;2023-03-18T12:41:04;100367.47;;;21.22;43.25
29371;BME280;16357;52.188;7.838;2023-03-18T12:43:50;100363.22;;;21.26;42.86
29371;BME280;16357;52.188;7.838;2023-03-18T12:46:36;100366.28;;;21.30;42.84
29371;BME280;16357;52.188;7.838;2023-03-18T12:49:28;100358.72;;;21.32;41.94
29371;BME280;16357;52.188;7.838;2023-03-18T12:54:56;100359.53;;;21.32;42.10
29371;BME280;16357;52.188;7.838;2023-03-18T12:57:39;100354.91;;;21.33;42.05
29371;BME280;16357;52.188;7.838;2023-03-18T13:00:17;100358.47;;;21.33;41.78
29371;BME280;16357;52.188;7.838;2023-03-18T13:02:49;100353.03;;;21.33;41.30
29371;BME280;16357;52.188;7.838;2023-03-18T13:05:23;100349.00;;;21.36;41.89
29371;BME280;16357;52.188;7.838;2023-03-18T13:10:47;100363.34;;;21.43;41.11
29371;BME280;16357;52.188;7.838;2023-03-18T13:13:15;100361.72;;;21.42;40.95
29371;BME280;16357;52.188;7.838;2023-03-18T13:15:47;100363.63;;;21.41;41.42
29371;BME280;16357;52.188;7.838;2023-03-18T13:18:24;100361.38;;;21.38;41.37
29371;BME280;16357;52.188;7.838;2023-03-18T13:20:55;100363.47;;;21.36;41.78
29371;BME280;16357;52.188;7.838;2023-03-18T13:26:47;100364.22;;;21.43;41.21
29371;BME280;16357;52.188;7.838;2023-03-18T13:29:37;100358.41;;;21.52;41.40
29371;BME280;16357;52.188;7.838;2023-03-18T13:32:20;100355.03;;;21.61;40.96
29371;BME280;16357;52.188;7.838;2023-03-18T13:37:43;100356.09;;;21.72;40.08
29371;BME280;16357;52.188;7.838;2023-03-18T13:42:58;100358.25;;;21.70;40.67
29371;BME280;16357;52.188;7.838;2023-03-18T13:45:27;100358.50;;;21.68;40.50
29371;BME280;16357;52.188;7.838;2023-03-18T13:48:04;100358.25;;;21.70;40.41
29371;BME280;16357;52.188;7.838;2023-03-18T13:50:35;100359.91;;;21.71;40.30
29371;BME280;16357;52.188;7.838;2023-03-18T13:53:04;100365.38;;;21.71;40.26
29371;BME280;16357;52.188;7.838;2023-03-18T13:55:39;100357.19;;;21.71;40.05
29371;BME280;16357;52.188;7.838;2023-03-18T13:58:33;100352.53;;;21.72;40.39
29371;BME280;16357;52.188;7.838;2023-03-18T14:01:27;100352.81;;;21.70;40.20
29371;BME280;16357;52.188;7.838;2023-03-18T14:03:58;100361.69;;;21.65;40.41
29371;BME280;16357;52.188;7.838;2023-03-18T14:09:31;100350.78;;;21.54;40.06
29371;BME280;16357;52.188;7.838;2023-03-18T14:12:19;100357.78;;;21.50;40.36
29371;BME280;16357;52.188;7.838;2023-03-18T14:17:52;100346.16;;;21.42;40.34
29371;BME280;16357;52.188;7.838;2023-03-18T14:20:24;100345.19;;;21.37;40.50
29371;BME280;16357;52.188;7.838;2023-03-18T14:22:53;100338.31;;;21.34;40.38
29371;BME280;16357;52.188;7.838;2023-03-18T14:35:52;100329.53;;;21.56;40.78
29371;BME280;16357;52.188;7.838;2023-03-18T14:38:21;100325.00;;;21.61;40.03
29371;BME280;16357;52.188;7.838;2023-03-18T14:40:50;100322.16;;;21.68;40.15